Time;durP1;ratioP1;P1;durP2;ratioP2;P2;SDS_P1;SDS_P2;PMS_P1;PMS_P2;Temp;Humidity;BMP_temperature;BMP_pressure;BME280_temperature;BME280_humidity;BME280_pressure;Samples;Min_cycle;Max_cycle;Signal;HPM_P1;HPM_P2
2021/11/20 00:01:27;;;;;;;24.17;9.60;;;19.80;99.90;;;;;;5038157;28;20583;-68
2021/11/20 00:03:55;;;;;;;23.85;9.60;;;19.80;99.90;;;;;;5034108;28;20071;-67
2021/11/20 00:06:30;;;;;;;25.73;10.57;;;19.70;99.90;;;;;;5041304;28;20032;-68
2021/11/20 00:08:58;;;;;;;28.30;10.40;;;19.80;99.90;;;;;;5030716;28;20027;-68
2021/11/20 00:11:28;;;;;;;23.98;9.00;;;19.70;99.90;;;;;;5029975;28;20037;-68
2021/11/20 00:13:57;;;;;;;30.02;10.40;;;19.80;99.90;;;;;;5030940;28;20551;-68
2021/11/20 00:16:26;;;;;;;27.80;9.80;;;19.80;99.90;;;;;;5033035;28;20022;-68
2021/11/20 00:18:54;;;;;;;27.48;9.27;;;19.80;99.90;;;;;;5031306;28;20120;-67
2021/11/20 00:21:27;;;;;;;25.38;8.75;;;20.00;99.90;;;;;;5030843;28;20025;-68
2021/11/20 00:24:00;;;;;;;19.80;9.32;;;20.00;99.90;;;;;;5033814;28;20029;-68
2021/11/20 00:26:33;;;;;;;25.17;10.40;;;20.10;99.90;;;;;;5033853;28;20474;-68
2021/11/20 00:29:17;;;;;;;31.23;9.82;;;20.10;99.90;;;;;;5032913;28;20041;-69
2021/11/20 00:32:10;;;;;;;32.05;10.52;;;20.30;99.90;;;;;;5026135;28;20053;-69
2021/11/20 00:34:40;;;;;;;22.98;11.40;;;20.40;99.90;;;;;;5027898;28;20021;-69
2021/11/20 00:37:07;;;;;;;24.00;9.63;;;20.30;99.90;;;;;;5031134;28;20018;-69
2021/11/20 00:39:36;;;;;;;27.17;10.73;;;20.20;99.90;;;;;;5027775;28;20038;-69
2021/11/20 00:42:06;;;;;;;22.45;8.60;;;20.30;99.90;;;;;;5029222;28;20022;-69
2021/11/20 00:44:33;;;;;;;26.45;10.00;;;20.20;99.90;;;;;;5035420;28;20029;-69
2021/11/20 00:47:01;;;;;;;26.23;10.02;;;20.10;99.90;;;;;;5031245;28;20032;-69
2021/11/20 00:49:30;;;;;;;31.27;10.20;;;20.10;99.90;;;;;;5030142;28;20025;-68
2021/11/20 00:51:57;;;;;;;23.02;8.35;;;20.10;99.90;;;;;;5033181;28;20108;-68
2021/11/20 00:54:25;;;;;;;26.92;10.10;;;20.00;99.90;;;;;;5033557;28;20072;-68
2021/11/20 00:56:53;;;;;;;25.48;9.52;;;20.00;99.90;;;;;;5043932;28;20033;-68
2021/11/20 00:59:20;;;;;;;23.40;9.27;;;20.00;99.90;;;;;;5070058;28;20457;-68
2021/11/20 01:01:59;;;;;;;25.02;7.80;;;20.00;99.90;;;;;;5067495;28;20397;-68
2021/11/20 01:04:31;;;;;;;26.30;9.82;;;20.00;99.90;;;;;;5046706;28;20025;-68
2021/11/20 01:07:00;;;;;;;24.70;8.52;;;19.90;99.90;;;;;;5026761;28;20520;-68
2021/11/20 01:09:35;;;;;;;29.00;8.88;;;19.90;99.90;;;;;;5029706;28;20044;-68
2021/11/20 01:12:08;;;;;;;27.70;8.50;;;20.00;99.90;;;;;;5044790;28;20082;-68
2021/11/20 01:14:37;;;;;;;28.48;8.85;;;20.00;99.90;;;;;;5051484;28;20025;-69
2021/11/20 01:17:07;;;;;;;28.83;7.93;;;19.90;99.90;;;;;;5039081;28;20040;-68
2021/11/20 01:19:35;;;;;;;17.90;7.30;;;19.90;99.90;;;;;;5033431;28;20037;-68
2021/11/20 01:22:05;;;;;;;21.45;7.07;;;19.90;99.90;;;;;;5032968;28;20036;-68
2021/11/20 01:24:33;;;;;;;34.58;8.23;;;19.80;99.90;;;;;;5032196;28;20021;-68
2021/11/20 01:27:00;;;;;;;28.70;8.27;;;19.80;99.90;;;;;;5031717;28;20485;-68
2021/11/20 01:29:27;;;;;;;24.70;9.20;;;19.70;99.90;;;;;;5033684;28;20025;-68
2021/11/20 01:31:56;;;;;;;26.00;8.35;;;19.60;99.90;;;;;;5045660;28;20091;-68
2021/11/20 01:34:25;;;;;;;21.98;7.35;;;19.70;99.90;;;;;;5053334;28;20500;-68
2021/11/20 01:36:55;;;;;;;24.30;7.82;;;19.80;99.90;;;;;;5050832;28;20057;-68
2021/11/20 01:39:29;;;;;;;28.20;8.55;;;19.80;99.90;;;;;;5052946;28;20021;-68
2021/11/20 01:42:21;;;;;;;23.67;6.82;;;19.80;99.90;;;;;;5041693;28;20029;-68
2021/11/20 01:45:02;;;;;;;23.02;6.38;;;19.80;99.90;;;;;;5032706;28;20095;-68
2021/11/20 01:47:41;;;;;;;24.23;7.40;;;19.90;99.90;;;;;;5046979;28;20043;-68
2021/11/20 01:50:16;;;;;;;26.40;9.25;;;20.00;99.90;;;;;;5052864;28;20056;-68
2021/11/20 01:52:59;;;;;;;27.05;8.25;;;20.00;99.90;;;;;;5050661;28;20064;-68
2021/11/20 01:56:05;;;;;;;21.70;8.48;;;19.80;99.90;;;;;;5052244;28;20025;-68
2021/11/20 01:58:34;;;;;;;27.55;9.20;;;19.70;99.90;;;;;;5013416;28;20037;-68
2021/11/20 02:01:08;;;;;;;27.50;9.27;;;19.70;99.90;;;;;;5021667;28;20024;-68
2021/11/20 02:03:55;;;;;;;28.30;8.77;;;19.80;99.90;;;;;;5052788;28;20041;-68
2021/11/20 02:06:38;;;;;;;23.02;9.07;;;19.80;99.90;;;;;;5035494;28;20040;-68
2021/11/20 02:09:31;;;;;;;25.83;10.52;;;19.90;99.90;;;;;;5032807;28;20029;-68
2021/11/20 02:12:17;;;;;;;29.63;11.90;;;19.80;99.90;;;;;;5042606;28;20509;-68
2021/11/20 02:14:46;;;;;;;29.08;10.45;;;19.70;99.90;;;;;;5051979;28;20041;-67
2021/11/20 02:17:21;;;;;;;38.28;14.80;;;19.50;99.90;;;;;;5049787;28;20025;-68
2021/11/20 02:20:00;;;;;;;31.40;13.88;;;19.50;99.90;;;;;;5027666;28;20025;-68
2021/11/20 02:22:36;;;;;;;28.63;12.38;;;19.30;99.90;;;;;;5043914;28;20049;-68
2021/11/20 02:25:02;;;;;;;28.27;13.38;;;19.30;99.90;;;;;;5052574;28;20112;-68
2021/11/20 02:27:33;;;;;;;36.30;12.40;;;19.30;99.90;;;;;;5040147;28;20021;-68
2021/11/20 02:30:24;;;;;;;27.40;10.02;;;19.20;99.90;;;;;;5047467;28;20152;-67
2021/11/20 02:33:04;;;;;;;31.90;11.40;;;19.20;99.90;;;;;;5026960;28;20038;-67
2021/11/20 02:35:42;;;;;;;34.30;11.15;;;19.20;99.90;;;;;;5030577;28;20029;-67
2021/11/20 02:38:16;;;;;;;26.45;10.15;;;19.20;99.90;;;;;;5027708;28;20390;-67
2021/11/20 02:40:44;;;;;;;28.13;9.20;;;19.20;99.90;;;;;;5018435;28;20048;-67
2021/11/20 02:43:13;;;;;;;21.95;8.70;;;19.20;99.90;;;;;;5044782;28;20025;-68
2021/11/20 02:45:49;;;;;;;23.85;8.80;;;19.10;99.90;;;;;;5028282;28;20075;-68
2021/11/20 02:48:17;;;;;;;30.95;10.73;;;19.20;99.90;;;;;;5044364;28;20485;-68
2021/11/20 02:50:55;;;;;;;32.10;11.00;;;19.10;99.90;;;;;;5021824;28;21190;-69
2021/11/20 02:53:44;;;;;;;34.70;12.93;;;19.00;99.90;;;;;;5027575;28;20029;-69
2021/11/20 02:56:16;;;;;;;29.70;11.60;;;18.80;99.90;;;;;;5027622;28;20045;-69
2021/11/20 02:58:44;;;;;;;27.60;12.60;;;18.60;99.90;;;;;;5031619;28;20097;-69
2021/11/20 03:01:24;;;;;;;30.83;13.07;;;18.70;99.90;;;;;;5027581;28;20390;-68
2021/11/20 03:03:51;;;;;;;31.00;12.77;;;18.60;99.90;;;;;;5026939;28;20028;-68
2021/11/20 03:06:18;;;;;;;22.77;10.15;;;18.60;99.90;;;;;;5029139;28;20018;-68
2021/11/20 03:08:46;;;;;;;21.98;8.55;;;18.50;99.90;;;;;;5031373;28;20038;-68
2021/11/20 03:11:14;;;;;;;24.50;10.52;;;18.50;99.90;;;;;;5030570;28;20474;-68
2021/11/20 03:13:45;;;;;;;23.55;9.48;;;18.50;99.90;;;;;;5025977;28;20462;-68
2021/11/20 03:16:13;;;;;;;18.10;9.38;;;18.50;99.90;;;;;;5030518;28;20025;-69
2021/11/20 03:18:40;;;;;;;20.30;8.90;;;18.60;99.90;;;;;;5031348;28;20108;-68
2021/11/20 03:21:08;;;;;;;22.38;8.20;;;18.60;99.90;;;;;;5030769;28;20021;-68
2021/11/20 03:23:43;;;;;;;22.65;8.95;;;18.60;99.90;;;;;;5031283;28;20033;-68
2021/11/20 03:26:10;;;;;;;18.00;7.72;;;18.60;99.90;;;;;;5030369;28;20119;-68
2021/11/20 03:28:37;;;;;;;19.38;8.90;;;18.60;99.90;;;;;;5030614;28;20041;-67
2021/11/20 03:31:05;;;;;;;15.85;7.95;;;18.70;99.90;;;;;;5030790;28;20021;-67
2021/11/20 03:33:33;;;;;;;13.45;8.35;;;18.60;99.90;;;;;;5028651;28;20036;-68
2021/11/20 03:36:00;;;;;;;15.85;8.35;;;18.60;99.90;;;;;;5032672;28;20026;-68
2021/11/20 03:38:28;;;;;;;13.77;7.55;;;18.60;99.90;;;;;;5032153;28;20132;-68
2021/11/20 03:40:56;;;;;;;17.83;6.75;;;18.60;99.90;;;;;;5032325;28;20033;-68
2021/11/20 03:43:24;;;;;;;12.63;6.55;;;18.50;99.90;;;;;;5032735;28;20389;-68
2021/11/20 03:45:52;;;;;;;13.55;6.28;;;18.50;99.90;;;;;;5031096;28;20041;-68
2021/11/20 03:48:20;;;;;;;11.60;5.20;;;18.50;99.90;;;;;;5040105;28;20045;-68
2021/11/20 03:50:49;;;;;;;9.80;4.25;;;18.60;99.90;;;;;;5035981;28;20033;-68
2021/11/20 03:53:17;;;;;;;10.75;3.38;;;18.60;99.90;;;;;;5043378;28;20503;-68
2021/11/20 03:55:47;;;;;;;11.52;4.57;;;18.60;99.90;;;;;;5044196;28;20116;-68
2021/11/20 03:58:18;;;;;;;9.60;4.03;;;18.60;99.90;;;;;;5041348;28;20108;-68
2021/11/20 04:00:53;;;;;;;13.00;3.03;;;18.60;99.90;;;;;;5034499;28;20049;-68
2021/11/20 04:03:21;;;;;;;9.25;4.38;;;18.50;99.90;;;;;;5033629;28;20079;-68
2021/11/20 04:05:54;;;;;;;10.32;2.75;;;18.60;99.90;;;;;;5034960;28;20063;-69
2021/11/20 04:08:22;;;;;;;7.25;3.42;;;18.60;99.90;;;;;;5032509;28;20037;-68
2021/11/20 04:10:51;;;;;;;6.78;3.10;;;18.70;99.90;;;;;;5033461;28;20034;-69
2021/11/20 04:13:19;;;;;;;10.77;3.22;;;18.70;99.90;;;;;;5044134;28;20062;-68
2021/11/20 04:15:47;;;;;;;5.28;3.53;;;18.50;99.90;;;;;;5042426;28;20040;-68
2021/11/20 04:18:14;;;;;;;10.75;3.28;;;18.50;99.90;;;;;;5038247;28;20355;-69
2021/11/20 04:20:42;;;;;;;6.35;2.60;;;18.50;99.90;;;;;;5045088;28;20032;-68
2021/11/20 04:23:10;;;;;;;8.45;2.95;;;18.40;99.90;;;;;;5050312;28;20025;-68
2021/11/20 04:25:38;;;;;;;3.22;1.20;;;18.40;99.90;;;;;;5033220;28;20083;-68
2021/11/20 04:28:06;;;;;;;5.00;0.88;;;18.40;99.90;;;;;;5033650;28;20060;-68
2021/11/20 04:30:34;;;;;;;7.25;1.48;;;18.40;99.90;;;;;;5037282;28;20026;-69
2021/11/20 04:33:01;;;;;;;4.63;1.35;;;18.40;99.90;;;;;;5040275;28;20372;-68
2021/11/20 04:35:29;;;;;;;4.03;0.98;;;18.60;99.90;;;;;;5036538;28;20053;-69
2021/11/20 04:37:56;;;;;;;4.32;1.02;;;18.40;99.90;;;;;;5037979;28;20031;-68
2021/11/20 04:40:25;;;;;;;4.82;1.63;;;18.50;99.90;;;;;;5046698;28;20029;-68
2021/11/20 04:42:52;;;;;;;6.22;1.70;;;18.50;99.90;;;;;;5027084;28;20477;-69
2021/11/20 04:45:23;;;;;;;4.28;1.00;;;18.40;99.90;;;;;;5026361;28;20461;-69
2021/11/20 04:47:50;;;;;;;4.72;0.88;;;18.50;99.90;;;;;;5042709;28;20568;-69
2021/11/20 04:50:19;;;;;;;5.22;1.25;;;18.50;99.90;;;;;;5049062;28;20128;-69
2021/11/20 04:52:47;;;;;;;3.25;0.60;;;18.60;99.90;;;;;;5051215;28;20100;-68
2021/11/20 04:55:15;;;;;;;3.65;1.02;;;18.70;99.90;;;;;;5053947;28;20040;-69
2021/11/20 04:57:43;;;;;;;2.92;0.40;;;18.60;99.90;;;;;;5032596;28;20079;-68
2021/11/20 05:00:16;;;;;;;3.60;0.70;;;18.50;99.90;;;;;;5033909;28;20025;-68
2021/11/20 05:02:44;;;;;;;4.32;0.88;;;18.40;99.90;;;;;;5031620;28;20044;-69
2021/11/20 05:05:12;;;;;;;3.85;1.45;;;18.50;99.90;;;;;;5032676;28;20025;-68
2021/11/20 05:07:39;;;;;;;6.82;0.98;;;18.50;99.90;;;;;;5048990;28;20036;-68
2021/11/20 05:10:11;;;;;;;9.38;1.00;;;18.50;99.90;;;;;;5052985;28;20056;-69
2021/11/20 05:12:38;;;;;;;5.25;0.70;;;18.50;99.90;;;;;;5050371;28;20028;-69
2021/11/20 05:15:08;;;;;;;3.95;0.82;;;18.60;99.90;;;;;;5048376;28;20025;-69
2021/11/20 05:17:36;;;;;;;4.18;0.40;;;18.70;99.90;;;;;;5031852;28;20021;-69
2021/11/20 05:20:05;;;;;;;2.67;0.40;;;18.70;99.90;;;;;;5038955;28;20096;-68
2021/11/20 05:22:33;;;;;;;7.45;1.25;;;18.80;99.90;;;;;;5050372;28;20120;-68
2021/11/20 05:25:00;;;;;;;4.18;1.00;;;18.50;99.90;;;;;;5027287;28;20029;-69
2021/11/20 05:27:28;;;;;;;7.30;1.27;;;18.50;99.90;;;;;;5046073;28;20028;-69
2021/11/20 05:30:03;;;;;;;6.72;1.25;;;18.50;99.90;;;;;;5047671;28;20366;-68
2021/11/20 05:32:30;;;;;;;5.57;1.17;;;18.70;99.90;;;;;;5024905;28;20025;-69
2021/11/20 05:34:58;;;;;;;4.75;0.70;;;18.70;99.90;;;;;;5029760;28;20049;-69
2021/11/20 05:37:25;;;;;;;6.72;0.95;;;18.60;99.90;;;;;;5046785;28;20443;-68
2021/11/20 05:39:53;;;;;;;6.15;0.68;;;18.50;99.90;;;;;;5053173;28;20039;-68
2021/11/20 05:42:20;;;;;;;4.68;1.17;;;18.50;99.90;;;;;;5049889;28;20168;-69
2021/11/20 05:44:48;;;;;;;5.82;1.10;;;18.40;99.90;;;;;;5052434;28;20093;-69
2021/11/20 05:47:17;;;;;;;4.43;1.13;;;18.40;99.90;;;;;;5049635;28;20029;-68
2021/11/20 05:49:46;;;;;;;7.20;0.80;;;18.30;99.90;;;;;;5047036;28;20064;-68
2021/11/20 05:52:15;;;;;;;3.92;0.60;;;18.10;99.90;;;;;;5032048;28;20702;-69
2021/11/20 05:54:44;;;;;;;12.10;1.95;;;18.20;99.90;;;;;;5032139;28;20049;-69
2021/11/20 05:57:11;;;;;;;8.02;1.08;;;18.20;99.90;;;;;;5034429;28;20056;-68
2021/11/20 05:59:40;;;;;;;8.27;1.35;;;18.10;99.90;;;;;;5032606;28;20454;-68
2021/11/20 06:02:07;;;;;;;3.72;0.65;;;18.20;99.90;;;;;;5030394;28;20022;-69
2021/11/20 06:04:35;;;;;;;3.70;0.70;;;18.20;99.90;;;;;;5030922;28;20104;-68
2021/11/20 06:07:03;;;;;;;4.50;0.70;;;18.00;99.90;;;;;;5030273;28;20021;-68
2021/11/20 06:09:31;;;;;;;4.53;1.38;;;17.90;99.90;;;;;;5032318;28;20034;-69
2021/11/20 06:11:58;;;;;;;7.68;0.93;;;17.90;99.90;;;;;;5042558;28;20393;-70
2021/11/20 06:14:26;;;;;;;6.32;1.05;;;17.90;99.90;;;;;;5052072;28;20028;-69
2021/11/20 06:16:53;;;;;;;4.45;0.65;;;17.90;99.90;;;;;;5036287;28;20025;-68
2021/11/20 06:19:20;;;;;;;5.55;0.90;;;17.80;99.90;;;;;;5032033;28;20018;-69
2021/11/20 06:21:47;;;;;;;7.35;1.75;;;17.80;99.90;;;;;;5040934;28;20028;-70
2021/11/20 06:24:15;;;;;;;6.10;0.60;;;17.80;99.90;;;;;;5033804;28;20022;-69
2021/11/20 06:26:43;;;;;;;7.10;0.77;;;17.80;99.90;;;;;;5031924;28;20083;-69
2021/11/20 06:29:11;;;;;;;5.53;0.90;;;17.80;99.90;;;;;;5032464;28;20564;-69
2021/11/20 06:31:38;;;;;;;6.55;0.70;;;17.90;99.90;;;;;;5028005;28;20037;-69
2021/11/20 06:34:06;;;;;;;8.77;0.90;;;17.90;99.90;;;;;;5032566;28;20022;-69
2021/11/20 06:36:34;;;;;;;7.00;0.80;;;17.80;99.90;;;;;;5031691;28;20038;-69
2021/11/20 06:39:01;;;;;;;9.27;1.48;;;17.80;99.90;;;;;;5030888;28;20056;-69
2021/11/20 06:41:28;;;;;;;6.50;1.17;;;17.80;99.90;;;;;;5031648;28;20030;-69
2021/11/20 06:43:56;;;;;;;4.28;0.77;;;17.80;99.90;;;;;;5032123;28;20029;-69
2021/11/20 06:46:23;;;;;;;7.65;1.00;;;17.80;99.90;;;;;;5031194;28;20532;-69
2021/11/20 06:48:50;;;;;;;12.45;1.13;;;17.80;99.90;;;;;;5031951;28;20076;-68
2021/11/20 06:51:19;;;;;;;6.72;0.95;;;17.80;99.90;;;;;;5032748;28;20022;-69
2021/11/20 06:53:47;;;;;;;5.18;0.80;;;17.70;99.90;;;;;;5030919;28;20042;-70
2021/11/20 06:56:26;;;;;;;6.82;0.80;;;17.70;99.90;;;;;;5029362;28;20105;-70
2021/11/20 06:59:08;;;;;;;7.50;1.02;;;17.80;99.90;;;;;;5012426;28;20036;-69
2021/11/20 07:01:37;;;;;;;9.40;1.10;;;17.70;99.90;;;;;;5021435;28;20406;-69
2021/11/20 07:04:11;;;;;;;5.18;0.90;;;17.80;99.90;;;;;;5031169;28;20029;-69
2021/11/20 07:06:48;;;;;;;3.30;0.80;;;17.70;99.90;;;;;;5039902;28;20021;-69
2021/11/20 07:09:17;;;;;;;4.03;0.80;;;17.70;99.90;;;;;;5052351;28;20033;-69
2021/11/20 07:11:44;;;;;;;6.78;0.82;;;17.70;99.90;;;;;;5052951;28;20024;-69
2021/11/20 07:14:12;;;;;;;6.25;0.90;;;17.70;99.90;;;;;;5055502;28;20032;-68
2021/11/20 07:16:40;;;;;;;6.10;0.93;;;17.70;99.90;;;;;;5039793;28;20018;-68
2021/11/20 07:19:08;;;;;;;9.40;0.95;;;17.70;99.90;;;;;;5023343;28;20395;-68
2021/11/20 07:21:35;;;;;;;8.98;1.08;;;17.60;99.90;;;;;;5031664;28;20119;-68
2021/11/20 07:24:06;;;;;;;6.22;0.70;;;17.60;99.90;;;;;;5055631;28;20051;-68
2021/11/20 07:26:35;;;;;;;7.60;1.27;;;17.60;99.90;;;;;;5043965;28;20389;-69
2021/11/20 07:29:05;;;;;;;10.93;1.27;;;17.60;99.90;;;;;;5038623;28;20041;-67
2021/11/20 07:31:32;;;;;;;5.85;1.15;;;17.60;99.90;;;;;;5039935;28;20021;-68
2021/11/20 07:33:59;;;;;;;9.23;1.35;;;17.60;99.90;;;;;;5058709;28;20032;-67
2021/11/20 07:36:28;;;;;;;7.85;2.03;;;17.60;99.90;;;;;;5060701;28;20040;-68
2021/11/20 07:39:00;;;;;;;5.50;0.93;;;17.60;99.90;;;;;;5047692;28;20044;-67
2021/11/20 07:41:28;;;;;;;5.03;0.93;;;17.50;99.90;;;;;;5041357;28;20055;-67
2021/11/20 07:43:56;;;;;;;8.02;1.35;;;17.50;99.90;;;;;;5046775;28;20021;-67
2021/11/20 07:46:25;;;;;;;6.07;1.40;;;17.60;99.90;;;;;;5028022;28;20045;-67
2021/11/20 07:48:52;;;;;;;6.80;2.25;;;17.60;99.90;;;;;;5023706;28;20033;-67
2021/11/20 07:51:20;;;;;;;6.75;1.73;;;17.40;99.90;;;;;;5044688;28;20122;-67
2021/11/20 07:53:48;;;;;;;7.32;1.70;;;17.50;99.90;;;;;;5035286;28;20025;-68
2021/11/20 07:56:17;;;;;;;12.15;1.63;;;17.50;99.90;;;;;;5042748;28;20485;-68
2021/11/20 07:58:45;;;;;;;7.13;1.48;;;17.50;99.90;;;;;;5045013;28;20394;-68
2021/11/20 08:01:13;;;;;;;5.50;1.02;;;17.40;99.90;;;;;;5044055;28;20108;-68
2021/11/20 08:03:40;;;;;;;9.45;0.85;;;17.30;99.90;;;;;;5038908;28;20029;-68
2021/11/20 08:06:08;;;;;;;7.95;1.20;;;17.30;99.90;;;;;;5039193;28;20546;-68
2021/11/20 08:08:36;;;;;;;6.28;0.60;;;17.30;99.90;;;;;;5042670;28;20040;-68
2021/11/20 08:11:05;;;;;;;8.13;1.38;;;17.30;99.90;;;;;;5034299;28;20075;-68
2021/11/20 08:13:35;;;;;;;6.85;1.27;;;17.30;99.90;;;;;;5033151;28;20041;-67
2021/11/20 08:16:04;;;;;;;4.13;0.80;;;17.30;99.90;;;;;;5034446;28;20017;-67
2021/11/20 08:18:31;;;;;;;8.27;1.00;;;17.40;99.90;;;;;;5060334;28;20060;-67
2021/11/20 08:21:02;;;;;;;9.40;1.17;;;17.30;99.90;;;;;;5042007;28;20385;-68
2021/11/20 08:23:32;;;;;;;5.47;0.98;;;17.30;99.90;;;;;;5035920;28;20025;-67
2021/11/20 08:26:00;;;;;;;7.57;1.25;;;17.30;99.90;;;;;;5045146;28;20473;-68
2021/11/20 08:28:29;;;;;;;7.72;1.52;;;17.30;99.90;;;;;;5047123;28;20550;-70
2021/11/20 08:30:57;;;;;;;7.30;1.10;;;17.20;99.90;;;;;;5033554;28;20029;-67
2021/11/20 08:33:24;;;;;;;6.60;0.70;;;17.20;99.90;;;;;;5032418;28;20386;-68
2021/11/20 08:35:52;;;;;;;6.93;0.80;;;17.20;99.90;;;;;;5046046;28;20049;-67
2021/11/20 08:38:20;;;;;;;7.15;0.88;;;17.10;99.90;;;;;;5040853;28;20017;-67
2021/11/20 08:40:48;;;;;;;5.38;0.75;;;17.20;99.90;;;;;;5041154;28;20469;-67
2021/11/20 08:43:17;;;;;;;4.85;0.88;;;17.20;99.90;;;;;;5040783;28;20488;-67
2021/11/20 08:45:50;;;;;;;6.38;0.70;;;17.10;99.90;;;;;;5044975;28;20043;-68
2021/11/20 08:48:20;;;;;;;7.93;1.13;;;17.10;99.90;;;;;;5047322;28;20374;-69
2021/11/20 08:50:58;;;;;;;6.15;0.77;;;17.10;99.90;;;;;;5034301;28;20096;-69
2021/11/20 08:53:26;;;;;;;7.15;0.80;;;17.10;99.90;;;;;;5042819;28;20028;-68
2021/11/20 08:55:54;;;;;;;4.55;1.00;;;17.10;99.90;;;;;;5043707;28;20025;-67
2021/11/20 08:58:22;;;;;;;6.18;1.30;;;17.00;99.90;;;;;;5036786;28;20036;-68
2021/11/20 09:01:00;;;;;;;9.20;1.55;;;17.00;99.90;;;;;;5046784;28;20028;-67
2021/11/20 09:03:55;;;;;;;6.78;1.40;;;17.10;99.90;;;;;;5035592;28;20037;-68
2021/11/20 09:06:34;;;;;;;2.92;0.80;;;17.10;99.90;;;;;;5029698;28;20168;-68
2021/11/20 09:09:14;;;;;;;5.07;0.65;;;17.10;99.90;;;;;;5016724;28;20037;-68
2021/11/20 09:12:13;;;;;;;5.10;0.63;;;17.10;99.90;;;;;;5049674;28;20021;-67
2021/11/20 09:14:45;;;;;;;5.80;1.20;;;17.20;99.90;;;;;;5027777;28;20504;-68
2021/11/20 09:17:15;;;;;;;6.35;1.17;;;17.20;99.90;;;;;;5039764;28;20013;-68
2021/11/20 09:19:44;;;;;;;9.80;0.80;;;17.20;99.90;;;;;;5046090;28;20438;-67
2021/11/20 09:22:12;;;;;;;3.38;1.05;;;17.10;99.90;;;;;;5040074;28;20087;-68
2021/11/20 09:24:42;;;;;;;4.80;1.17;;;17.10;99.90;;;;;;5039063;28;20060;-68
2021/11/20 09:27:11;;;;;;;5.78;1.60;;;17.20;99.90;;;;;;5052904;28;20025;-67
2021/11/20 09:29:40;;;;;;;6.05;0.90;;;17.20;99.90;;;;;;5035437;28;20033;-67
2021/11/20 09:32:08;;;;;;;4.85;1.58;;;17.20;99.90;;;;;;5048707;28;20057;-68
2021/11/20 09:34:36;;;;;;;5.40;2.28;;;17.20;99.90;;;;;;5048833;28;20025;-67
2021/11/20 09:37:04;;;;;;;10.43;4.25;;;17.20;99.90;;;;;;5035831;28;20022;-68
2021/11/20 09:39:35;;;;;;;7.00;1.48;;;17.20;99.90;;;;;;5032703;28;20029;-68
2021/11/20 09:42:20;;;;;;;9.07;1.60;;;17.20;99.90;;;;;;5038790;28;20017;-68
2021/11/20 09:44:52;;;;;;;5.95;1.20;;;17.30;99.90;;;;;;5038477;28;20180;-69
2021/11/20 09:47:29;;;;;;;7.38;0.88;;;17.30;99.90;;;;;;5032313;28;20026;-68
2021/11/20 09:50:06;;;;;;;8.50;0.77;;;17.20;99.90;;;;;;5032277;28;20397;-66
2021/11/20 09:52:34;;;;;;;5.75;1.15;;;17.20;99.90;;;;;;5034484;28;20063;-67
2021/11/20 09:55:01;;;;;;;6.60;0.75;;;17.20;99.90;;;;;;5039054;28;20025;-66
2021/11/20 09:57:35;;;;;;;5.93;0.70;;;17.20;99.90;;;;;;5039734;28;20024;-67
2021/11/20 10:00:54;;;;;;;8.75;0.90;;;17.20;99.90;;;;;;5050718;28;20037;-67
2021/11/20 10:03:43;;;;;;;4.88;0.60;;;17.10;99.90;;;;;;5004483;28;20046;-66
2021/11/20 10:06:21;;;;;;;6.10;1.00;;;17.10;99.90;;;;;;5041055;28;20071;-67
2021/11/20 10:08:49;;;;;;;7.85;1.17;;;17.10;99.90;;;;;;5049164;28;20052;-67
2021/11/20 10:11:51;;;;;;;4.53;0.98;;;17.10;99.90;;;;;;5031011;28;20544;-66
2021/11/20 10:14:32;;;;;;;4.78;1.38;;;17.00;99.90;;;;;;5009723;28;20033;-68
2021/11/20 10:17:14;;;;;;;5.90;1.00;;;17.00;99.90;;;;;;5034265;28;20137;-67
2021/11/20 10:19:54;;;;;;;4.93;1.00;;;17.00;99.90;;;;;;5037715;28;20381;-67
2021/11/20 10:22:30;;;;;;;5.38;1.00;;;17.00;99.90;;;;;;5030445;28;20421;-67
2021/11/20 10:25:48;;;;;;;9.43;1.08;;;16.90;99.90;;;;;;5032389;28;20021;-68
2021/11/20 10:28:44;;;;;;;2.78;0.85;;;16.90;99.90;;;;;;5025043;28;20128;-68
2021/11/20 10:31:18;;;;;;;8.70;1.08;;;16.80;99.90;;;;;;5031559;28;20029;-67
2021/11/20 10:33:47;;;;;;;5.95;0.85;;;16.80;99.90;;;;;;5031583;28;20029;-68
2021/11/20 10:36:31;;;;;;;6.82;1.35;;;16.80;99.90;;;;;;5026137;28;20030;-67
2021/11/20 10:39:01;;;;;;;4.60;0.80;;;16.80;99.90;;;;;;5012447;28;20037;-68
2021/11/20 10:42:00;;;;;;;3.47;0.95;;;16.80;99.90;;;;;;5027354;28;20029;-68
2021/11/20 10:44:49;;;;;;;8.07;1.50;;;16.80;99.90;;;;;;5033266;28;20026;-68
2021/11/20 10:47:16;;;;;;;11.07;1.38;;;16.80;99.90;;;;;;5034949;28;20034;-68
2021/11/20 10:50:25;;;;;;;6.15;1.10;;;16.70;99.90;;;;;;5036286;28;20025;-68
2021/11/20 10:53:33;;;;;;;8.02;1.13;;;16.70;99.90;;;;;;5048668;28;20393;-68
2021/11/20 10:56:12;;;;;;;5.72;1.17;;;16.70;99.90;;;;;;5030349;28;20021;-67
2021/11/20 10:59:08;;;;;;;6.13;1.00;;;16.70;99.90;;;;;;5037229;28;20030;-67
2021/11/20 11:01:58;;;;;;;5.75;1.35;;;16.60;99.90;;;;;;5039426;28;20021;-67
2021/11/20 11:04:55;;;;;;;5.22;0.90;;;16.60;99.90;;;;;;5035599;28;20999;-68
2021/11/20 11:07:48;;;;;;;6.20;0.77;;;16.60;99.90;;;;;;5048231;28;20033;-67
2021/11/20 11:10:26;;;;;;;4.57;0.68;;;16.60;99.90;;;;;;5035951;28;20037;-67
2021/11/20 11:13:27;;;;;;;5.60;1.17;;;16.60;99.90;;;;;;5035094;28;20029;-67
2021/11/20 11:16:33;;;;;;;6.32;1.20;;;16.60;99.90;;;;;;4996407;28;20041;-67
2021/11/20 11:19:21;;;;;;;3.03;0.80;;;16.60;99.90;;;;;;5036893;28;20025;-67
2021/11/20 11:21:57;;;;;;;3.85;0.68;;;16.50;99.90;;;;;;5044268;28;20036;-67
2021/11/20 11:24:52;;;;;;;5.55;0.70;;;16.60;99.90;;;;;;5034210;28;20173;-66
2021/11/20 11:27:43;;;;;;;3.97;0.70;;;16.60;99.90;;;;;;5012018;28;20033;-66
2021/11/20 11:30:32;;;;;;;8.85;1.25;;;16.50;99.90;;;;;;5039412;28;20037;-69
2021/11/20 11:32:59;;;;;;;8.05;2.05;;;16.50;99.90;;;;;;5047376;28;20048;-67
2021/11/20 11:35:44;;;;;;;5.22;0.88;;;16.50;99.90;;;;;;5041273;28;20060;-66
2021/11/20 11:38:17;;;;;;;5.47;1.38;;;16.50;99.90;;;;;;5046955;28;20034;-66
2021/11/20 11:41:06;;;;;;;5.30;0.63;;;16.50;99.90;;;;;;5046274;28;20033;-67
2021/11/20 11:44:05;;;;;;;4.95;0.70;;;16.50;99.90;;;;;;5027641;28;20025;-67
2021/11/20 11:46:56;;;;;;;5.53;1.02;;;16.50;99.90;;;;;;5043200;28;20497;-71
2021/11/20 11:49:30;;;;;;;2.28;0.90;;;16.50;99.90;;;;;;5039189;28;20079;-68
2021/11/20 11:52:18;;;;;;;6.40;0.63;;;16.50;99.90;;;;;;5036719;28;20466;-67
2021/11/20 11:54:50;;;;;;;6.47;1.35;;;16.50;99.90;;;;;;5047538;28;20349;-68
2021/11/20 11:57:17;;;;;;;3.63;0.80;;;16.50;99.90;;;;;;5038778;28;20426;-67
2021/11/20 11:59:51;;;;;;;2.58;0.30;;;16.60;99.90;;;;;;5040987;28;20021;-68
2021/11/20 12:02:33;;;;;;;5.28;0.88;;;16.60;99.90;;;;;;5042227;28;20028;-67
2021/11/20 12:05:34;;;;;;;3.67;0.90;;;16.60;99.90;;;;;;5035893;28;20385;-68
2021/11/20 12:08:28;;;;;;;4.88;0.60;;;16.60;99.90;;;;;;5038695;28;20033;-67
2021/11/20 12:11:03;;;;;;;5.53;0.90;;;16.50;99.90;;;;;;5034826;28;20084;-67
2021/11/20 12:13:37;;;;;;;1.92;0.43;;;16.50;99.90;;;;;;5035875;28;20029;-67
2021/11/20 12:16:23;;;;;;;4.63;0.82;;;16.50;99.90;;;;;;5043695;28;20032;-67
2021/11/20 12:19:34;;;;;;;0.68;0.30;;;16.50;99.90;;;;;;5043420;28;20053;-68
2021/11/20 12:22:01;;;;;;;4.65;0.70;;;16.50;99.90;;;;;;5037392;28;20031;-67
2021/11/20 12:25:04;;;;;;;1.85;0.30;;;16.50;99.90;;;;;;5050346;28;20048;-67
2021/11/20 12:27:50;;;;;;;7.00;0.40;;;16.50;99.90;;;;;;5035201;28;20033;-68
2021/11/20 12:30:34;;;;;;;1.13;0.40;;;16.60;99.90;;;;;;5038112;28;20036;-68
2021/11/20 12:33:19;;;;;;;2.67;0.60;;;16.60;99.90;;;;;;5036991;28;20029;-68
2021/11/20 12:36:08;;;;;;;2.83;0.30;;;16.60;99.90;;;;;;5038220;28;20029;-68
2021/11/20 12:38:46;;;;;;;3.08;0.70;;;16.60;99.90;;;;;;5041528;28;20074;-68
2021/11/20 12:41:13;;;;;;;1.05;0.35;;;16.60;99.90;;;;;;5034275;28;20044;-68
2021/11/20 12:43:43;;;;;;;1.83;0.43;;;16.50;99.90;;;;;;5034532;28;20148;-67
2021/11/20 12:46:53;;;;;;;3.47;0.60;;;16.60;99.90;;;;;;5034141;28;20386;-67
2021/11/20 12:49:35;;;;;;;4.20;0.73;;;16.50;99.90;;;;;;5046345;28;20083;-67
2021/11/20 12:52:19;;;;;;;3.95;0.40;;;16.50;99.90;;;;;;5036515;28;20056;-67
2021/11/20 12:55:01;;;;;;;2.83;0.65;;;16.50;99.90;;;;;;5044834;28;20116;-67
2021/11/20 12:57:43;;;;;;;5.53;0.93;;;16.50;99.90;;;;;;5058841;28;20056;-68
2021/11/20 13:00:16;;;;;;;5.45;0.80;;;16.50;99.90;;;;;;5036479;28;20022;-68
2021/11/20 13:02:46;;;;;;;4.13;0.82;;;16.40;99.90;;;;;;5035811;28;20481;-67
2021/11/20 13:05:41;;;;;;;5.78;0.68;;;16.40;99.90;;;;;;5044650;28;20504;-67
2021/11/20 13:08:22;;;;;;;;;;;16.40;99.90;;;;;;5038267;28;20379;-68
2021/11/20 13:11:22;;;;;;;2.95;0.60;;;16.40;99.90;;;;;;5041163;28;19956;-68
2021/11/20 13:14:08;;;;;;;4.57;0.52;;;16.30;99.90;;;;;;5042620;28;20381;-68
2021/11/20 13:17:02;;;;;;;2.35;0.70;;;16.30;99.90;;;;;;5041293;28;20392;-67
2021/11/20 13:19:46;;;;;;;5.00;1.10;;;16.20;99.90;;;;;;5040775;28;20119;-67